Time;durP1;ratioP1;P1;durP2;ratioP2;P2;SDS_P1;SDS_P2;PMS_P1;PMS_P2;Temp;Humidity;BMP_temperature;BMP_pressure;BME280_temperature;BME280_humidity;BME280_pressure;Samples;Min_cycle;Max_cycle;Signal;HPM_P1;HPM_P2
2021/03/20 00:00:08;;;;;;;8.00;6.00;;;-0.60;99.90;;;;;;485567;245;27870;-74
2021/03/20 00:02:09;;;;;;;9.48;6.35;;;-0.60;99.90;;;;;;485590;245;27978;-75
2021/03/20 00:04:10;;;;;;;10.23;6.65;;;-0.60;99.90;;;;;;485589;244;28034;-75
2021/03/20 00:06:12;;;;;;;10.00;7.68;;;-0.60;99.90;;;;;;485593;245;27489;-75
2021/03/20 00:08:13;;;;;;;11.82;7.32;;;-0.60;99.90;;;;;;485562;245;27484;-74
2021/03/20 00:10:14;;;;;;;15.15;7.43;;;-0.70;99.90;;;;;;485552;245;27411;-75
2021/03/20 00:12:15;;;;;;;13.07;8.25;;;-0.70;99.90;;;;;;485595;245;27401;-75
2021/03/20 00:14:17;;;;;;;8.95;6.53;;;-0.70;99.90;;;;;;485558;245;27489;-74
2021/03/20 00:16:18;;;;;;;9.45;6.87;;;-0.70;99.90;;;;;;485600;245;27516;-75
2021/03/20 00:18:19;;;;;;;12.05;7.00;;;-0.70;99.90;;;;;;485564;245;27922;-75
2021/03/20 00:20:20;;;;;;;10.07;6.90;;;-0.70;99.90;;;;;;485579;245;29050;-75
2021/03/20 00:22:22;;;;;;;11.15;6.95;;;-0.70;99.90;;;;;;485596;245;27399;-76
2021/03/20 00:24:23;;;;;;;8.95;6.15;;;-0.80;99.90;;;;;;485579;245;27488;-74
2021/03/20 00:26:24;;;;;;;10.25;6.57;;;-0.80;99.90;;;;;;485624;245;27414;-74
2021/03/20 00:28:25;;;;;;;9.73;6.68;;;-0.80;99.90;;;;;;485603;245;27466;-75
2021/03/20 00:30:27;;;;;;;10.10;6.82;;;-0.80;99.90;;;;;;485608;245;27498;-75
2021/03/20 00:32:28;;;;;;;9.35;6.37;;;-0.80;99.90;;;;;;485597;245;27498;-75
2021/03/20 00:34:29;;;;;;;8.02;5.53;;;-0.80;99.90;;;;;;485576;245;27816;-74
2021/03/20 00:36:30;;;;;;;6.40;4.90;;;-0.80;99.90;;;;;;485591;245;27862;-75
2021/03/20 00:38:32;;;;;;;8.13;5.93;;;-0.80;99.90;;;;;;485577;245;27936;-75
2021/03/20 00:40:33;;;;;;;7.82;5.25;;;-0.90;99.90;;;;;;485585;245;27474;-75
2021/03/20 00:42:34;;;;;;;9.40;5.97;;;-0.90;99.90;;;;;;485579;245;27470;-75
2021/03/20 00:44:35;;;;;;;8.80;5.85;;;-0.90;99.90;;;;;;485556;245;27511;-74
2021/03/20 00:46:37;;;;;;;8.68;6.18;;;-0.90;99.90;;;;;;485568;245;27395;-75
2021/03/20 00:48:38;;;;;;;7.97;6.40;;;-0.90;99.90;;;;;;485557;244;27493;-74
2021/03/20 00:50:39;;;;;;;14.18;6.65;;;-0.90;99.90;;;;;;485564;245;27383;-75
2021/03/20 00:52:41;;;;;;;9.77;6.60;;;-0.90;99.90;;;;;;485573;245;27493;-75
2021/03/20 00:54:42;;;;;;;8.90;6.60;;;-0.90;99.90;;;;;;485578;245;28368;-75
2021/03/20 00:56:43;;;;;;;14.87;7.55;;;-0.90;99.90;;;;;;485574;245;27976;-75
2021/03/20 00:58:44;;;;;;;9.95;7.07;;;-0.90;99.90;;;;;;485578;245;27852;-74
2021/03/20 01:00:46;;;;;;;8.77;5.80;;;-0.90;99.90;;;;;;485587;245;27403;-74
2021/03/20 01:02:47;;;;;;;12.30;6.43;;;-1.00;99.90;;;;;;485591;245;27391;-75
2021/03/20 01:04:48;;;;;;;8.93;6.70;;;-1.00;99.90;;;;;;485556;245;27387;-75
2021/03/20 01:06:49;;;;;;;8.50;5.90;;;-1.00;99.90;;;;;;485572;245;27394;-75
2021/03/20 01:08:51;;;;;;;10.35;7.55;;;-1.10;99.90;;;;;;485571;245;27387;-75
2021/03/20 01:10:52;;;;;;;8.52;6.25;;;-1.00;99.90;;;;;;485581;245;27386;-75
2021/03/20 01:12:53;;;;;;;7.20;5.03;;;-1.10;99.90;;;;;;485564;245;27913;-74
2021/03/20 01:14:54;;;;;;;8.13;5.70;;;-1.10;99.90;;;;;;485568;245;27865;-76
2021/03/20 01:16:56;;;;;;;6.72;5.30;;;-1.10;99.90;;;;;;485587;245;27957;-76
2021/03/20 01:18:57;;;;;;;10.52;6.20;;;-1.10;99.90;;;;;;485558;245;27387;-75
2021/03/20 01:20:58;;;;;;;9.57;6.45;;;-1.10;99.90;;;;;;485574;245;27395;-75
2021/03/20 01:22:59;;;;;;;11.43;6.10;;;-1.20;99.90;;;;;;485587;245;27399;-74
2021/03/20 01:25:01;;;;;;;10.07;6.37;;;-1.20;99.90;;;;;;485579;245;27481;-75
2021/03/20 01:27:02;;;;;;;12.63;7.47;;;-1.20;99.90;;;;;;485575;245;27485;-74
2021/03/20 01:29:03;;;;;;;19.00;8.27;;;-1.20;99.90;;;;;;485567;245;27486;-75
2021/03/20 01:31:04;;;;;;;13.65;8.23;;;-1.20;99.90;;;;;;485553;245;28086;-75
2021/03/20 01:33:06;;;;;;;13.23;7.37;;;-1.20;99.90;;;;;;485570;245;27885;-74
2021/03/20 01:35:07;;;;;;;13.82;7.07;;;-1.20;99.90;;;;;;485568;245;27478;-75
2021/03/20 01:37:08;;;;;;;14.95;6.47;;;-1.20;99.90;;;;;;485564;245;27395;-75
2021/03/20 01:39:09;;;;;;;11.18;6.78;;;-1.10;99.90;;;;;;485586;245;27383;-75
2021/03/20 01:41:11;;;;;;;12.80;6.65;;;-1.10;99.90;;;;;;485586;245;27399;-75
2021/03/20 01:43:12;;;;;;;17.02;7.00;;;-1.10;99.90;;;;;;485599;245;27387;-75
2021/03/20 01:45:13;;;;;;;13.48;7.60;;;-1.10;99.90;;;;;;485577;245;27901;-74
2021/03/20 01:47:14;;;;;;;15.10;7.68;;;-1.10;99.90;;;;;;485593;245;28215;-74
2021/03/20 01:49:16;;;;;;;15.60;8.38;;;-1.10;99.90;;;;;;485590;245;27892;-75
2021/03/20 01:51:17;;;;;;;20.70;8.85;;;-1.10;99.90;;;;;;485585;245;27382;-75
2021/03/20 01:53:18;;;;;;;17.15;8.48;;;-1.10;99.90;;;;;;485585;245;27470;-75
2021/03/20 01:55:20;;;;;;;17.95;8.55;;;-1.00;99.90;;;;;;485565;245;27501;-74
2021/03/20 01:57:21;;;;;;;16.62;8.02;;;-1.00;99.90;;;;;;485577;245;27427;-75
2021/03/20 01:59:22;;;;;;;14.05;7.87;;;-1.00;99.90;;;;;;485623;245;27386;-75
2021/03/20 02:01:23;;;;;;;13.40;7.62;;;-1.00;99.90;;;;;;485615;245;27897;-76
2021/03/20 02:03:27;;;;;;;14.18;6.95;;;-1.00;99.90;;;;;;485567;245;27849;-74
2021/03/20 02:05:26;;;;;;;16.42;8.18;;;-0.90;99.90;;;;;;485556;244;27414;-75
2021/03/20 02:07:27;;;;;;;15.02;7.95;;;-0.90;99.90;;;;;;485568;245;27399;-74
2021/03/20 02:09:28;;;;;;;12.88;7.05;;;-0.90;99.90;;;;;;485547;245;27406;-74
2021/03/20 02:11:29;;;;;;;12.37;7.50;;;-0.90;99.90;;;;;;485561;245;27390;-76
2021/03/20 02:13:31;;;;;;;13.57;6.90;;;-0.80;99.90;;;;;;485562;244;27462;-75
2021/03/20 02:15:32;;;;;;;10.15;6.60;;;-0.80;99.90;;;;;;485605;241;27506;-75
2021/03/20 02:17:33;;;;;;;10.90;6.80;;;-0.80;99.90;;;;;;485556;245;27895;-75
2021/03/20 02:19:34;;;;;;;12.43;7.53;;;-0.80;99.90;;;;;;485557;245;28942;-75
2021/03/20 02:21:36;;;;;;;11.52;6.50;;;-0.70;99.90;;;;;;485553;245;27402;-76
2021/03/20 02:23:37;;;;;;;10.98;7.50;;;-0.70;99.90;;;;;;485554;245;27415;-76
2021/03/20 02:25:38;;;;;;;9.00;6.82;;;-0.70;99.90;;;;;;485564;245;27407;-75
2021/03/20 02:27:40;;;;;;;11.98;7.10;;;-0.70;99.90;;;;;;485541;245;27398;-74
2021/03/20 02:29:41;;;;;;;11.52;6.15;;;-0.70;99.90;;;;;;485565;245;27484;-75
2021/03/20 02:31:42;;;;;;;12.25;6.72;;;-0.70;99.90;;;;;;485544;245;27374;-76
2021/03/20 02:33:43;;;;;;;10.20;6.47;;;-0.80;99.90;;;;;;485557;245;27938;-75
2021/03/20 02:35:45;;;;;;;9.23;7.03;;;-0.80;99.90;;;;;;485579;245;27956;-75
2021/03/20 02:37:46;;;;;;;8.90;6.45;;;-0.80;99.90;;;;;;485574;245;27474;-75
2021/03/20 02:39:47;;;;;;;9.85;6.65;;;-0.70;99.90;;;;;;485568;245;27393;-75
2021/03/20 02:41:48;;;;;;;10.35;5.80;;;-0.80;99.90;;;;;;485573;245;27411;-75
2021/03/20 02:43:50;;;;;;;11.95;5.85;;;-0.90;99.90;;;;;;485567;245;27387;-75
2021/03/20 02:45:51;;;;;;;8.82;6.25;;;-1.00;99.90;;;;;;485555;244;27391;-74
2021/03/20 02:47:52;;;;;;;7.97;5.65;;;-1.10;99.90;;;;;;485555;245;27488;-75
2021/03/20 02:49:53;;;;;;;8.95;6.40;;;-1.10;99.90;;;;;;485583;245;27446;-75
2021/03/20 02:51:55;;;;;;;8.55;6.22;;;-1.20;99.90;;;;;;485570;245;27818;-74
2021/03/20 02:53:56;;;;;;;6.78;5.10;;;-1.30;99.90;;;;;;485570;245;27861;-76
2021/03/20 02:55:57;;;;;;;7.03;5.40;;;-1.30;99.90;;;;;;485594;245;27774;-74
2021/03/20 02:57:58;;;;;;;7.20;5.37;;;-1.40;99.90;;;;;;485595;245;27470;-74
2021/03/20 03:00:00;;;;;;;6.85;5.00;;;-1.40;99.90;;;;;;485548;245;27398;-75
2021/03/20 03:02:01;;;;;;;7.40;5.03;;;-1.30;99.90;;;;;;485566;245;27486;-74
2021/03/20 03:04:02;;;;;;;7.22;5.85;;;-1.30;99.90;;;;;;485566;245;27403;-75
2021/03/20 03:06:03;;;;;;;8.48;4.85;;;-1.20;99.90;;;;;;485535;245;27431;-75
2021/03/20 03:08:05;;;;;;;7.78;4.97;;;-1.30;99.90;;;;;;485581;245;27399;-74
2021/03/20 03:10:06;;;;;;;5.57;4.90;;;-1.30;99.90;;;;;;485574;245;27538;-74
2021/03/20 03:12:07;;;;;;;5.43;4.82;;;-1.40;99.90;;;;;;485577;245;27849;-75
2021/03/20 03:14:08;;;;;;;7.00;5.30;;;-1.40;99.90;;;;;;485579;245;29037;-75
2021/03/20 03:16:10;;;;;;;8.18;5.55;;;-1.40;99.90;;;;;;485564;244;27826;-75
2021/03/20 03:18:11;;;;;;;6.62;5.28;;;-1.40;99.90;;;;;;485578;245;27466;-75
2021/03/20 03:20:12;;;;;;;9.25;5.00;;;-1.40;99.90;;;;;;485604;245;27462;-74
2021/03/20 03:22:13;;;;;;;7.20;5.70;;;-1.40;99.90;;;;;;485596;245;27399;-74
2021/03/20 03:24:15;;;;;;;6.90;5.20;;;-1.40;99.90;;;;;;485585;245;27394;-75
2021/03/20 03:26:16;;;;;;;6.85;5.25;;;-1.40;99.90;;;;;;485580;245;27411;-75
2021/03/20 03:28:17;;;;;;;5.18;4.45;;;-1.30;99.90;;;;;;485595;245;27482;-74
2021/03/20 03:30:18;;;;;;;7.22;5.60;;;-1.30;99.90;;;;;;485590;245;27405;-75
2021/03/20 03:32:20;;;;;;;7.97;5.55;;;-1.30;99.90;;;;;;485558;245;27940;-76
2021/03/20 03:34:21;;;;;;;8.02;5.07;;;-1.40;99.90;;;;;;485589;245;27959;-75
2021/03/20 03:36:22;;;;;;;6.40;4.70;;;-1.40;99.90;;;;;;485597;245;27465;-75
2021/03/20 03:38:23;;;;;;;6.75;4.90;;;-1.40;99.90;;;;;;485596;245;27402;-74
2021/03/20 03:40:25;;;;;;;4.70;4.20;;;-1.50;99.90;;;;;;485556;245;27504;-76
2021/03/20 03:42:26;;;;;;;6.22;4.82;;;-1.50;99.90;;;;;;485629;245;27499;-75
2021/03/20 03:44:27;;;;;;;6.15;4.95;;;-1.50;99.90;;;;;;485584;245;27410;-74
2021/03/20 03:46:28;;;;;;;5.70;4.60;;;-1.50;99.90;;;;;;485595;244;27402;-74
2021/03/20 03:48:30;;;;;;;7.43;4.78;;;-1.50;99.90;;;;;;485583;245;27393;-75
2021/03/20 03:50:31;;;;;;;6.22;4.60;;;-1.60;99.90;;;;;;485573;244;27390;-74
2021/03/20 03:52:32;;;;;;;5.97;4.80;;;-1.60;99.90;;;;;;485592;245;27939;-74
2021/03/20 03:54:33;;;;;;;6.22;4.97;;;-1.60;99.90;;;;;;485573;245;29351;-75
2021/03/20 03:56:35;;;;;;;5.30;4.32;;;-1.70;99.90;;;;;;485587;245;27465;-75
2021/03/20 03:58:36;;;;;;;5.80;4.60;;;-1.70;99.90;;;;;;485601;245;27395;-76
2021/03/20 04:00:38;;;;;;;7.47;4.50;;;-1.70;99.90;;;;;;485585;245;27389;-74
2021/03/20 04:02:38;;;;;;;5.28;4.40;;;-1.70;99.90;;;;;;485574;245;27407;-74
2021/03/20 04:04:40;;;;;;;5.15;4.43;;;-1.60;99.90;;;;;;485603;245;27391;-74
2021/03/20 04:06:41;;;;;;;5.75;5.10;;;-1.60;99.90;;;;;;485591;245;27387;-75
2021/03/20 04:08:42;;;;;;;8.00;4.95;;;-1.60;99.90;;;;;;485621;245;27402;-75
2021/03/20 04:10:43;;;;;;;6.40;5.30;;;-1.70;99.90;;;;;;485628;245;27477;-75
2021/03/20 04:12:45;;;;;;;10.60;6.22;;;-1.60;99.90;;;;;;485628;245;27850;-74
2021/03/20 04:14:46;;;;;;;7.40;5.80;;;-1.70;99.90;;;;;;485621;245;28445;-74
2021/03/20 04:16:47;;;;;;;8.02;6.35;;;-1.60;99.90;;;;;;485588;241;27374;-75
2021/03/20 04:18:48;;;;;;;10.57;6.68;;;-1.60;99.90;;;;;;485586;245;27484;-76
2021/03/20 04:20:50;;;;;;;12.20;6.80;;;-1.70;99.90;;;;;;485602;245;27397;-74
2021/03/20 04:22:51;;;;;;;8.43;6.82;;;-1.70;99.90;;;;;;485583;245;27394;-74
2021/03/20 04:24:52;;;;;;;11.23;8.20;;;-1.60;99.90;;;;;;485620;245;27469;-75
2021/03/20 04:26:53;;;;;;;9.55;7.22;;;-1.50;99.90;;;;;;485583;245;27481;-75
2021/03/20 04:28:55;;;;;;;9.73;7.03;;;-1.40;99.90;;;;;;485585;245;27886;-75
2021/03/20 04:30:56;;;;;;;10.18;7.90;;;-1.30;99.90;;;;;;485574;245;27933;-74
2021/03/20 04:32:57;;;;;;;8.13;7.22;;;-1.30;99.90;;;;;;485575;245;27853;-75
2021/03/20 04:34:59;;;;;;;10.38;7.70;;;-1.30;99.90;;;;;;485575;245;27474;-75
2021/03/20 04:37:00;;;;;;;11.00;7.87;;;-1.20;99.90;;;;;;485606;245;27489;-74
2021/03/20 04:39:01;;;;;;;9.23;7.75;;;-1.20;99.90;;;;;;485572;245;27398;-75
2021/03/20 04:41:02;;;;;;;10.18;7.03;;;-1.20;99.90;;;;;;485619;245;27497;-74
2021/03/20 04:43:04;;;;;;;18.58;5.28;;;-1.30;99.90;;;;;;485563;244;27418;-76
2021/03/20 04:45:05;;;;;;;9.07;5.70;;;-1.40;99.90;;;;;;485564;245;27411;-75
2021/03/20 04:47:06;;;;;;;5.35;4.70;;;-1.50;99.90;;;;;;485586;245;27868;-75
2021/03/20 04:49:07;;;;;;;7.60;5.10;;;-1.60;99.90;;;;;;485563;245;27973;-75
2021/03/20 04:51:09;;;;;;;7.65;4.55;;;-1.70;99.90;;;;;;485572;245;27854;-75
2021/03/20 04:53:10;;;;;;;6.03;5.15;;;-1.70;99.90;;;;;;485554;245;27475;-76
2021/03/20 04:55:11;;;;;;;5.62;5.12;;;-1.80;99.90;;;;;;485567;245;27407;-74
2021/03/20 04:57:12;;;;;;;8.98;5.62;;;-1.80;99.90;;;;;;485567;245;27394;-74
2021/03/20 04:59:14;;;;;;;6.47;5.15;;;-1.80;99.90;;;;;;485567;245;27498;-74
2021/03/20 05:01:15;;;;;;;6.57;4.40;;;-1.90;99.90;;;;;;485638;245;27488;-75
2021/03/20 05:03:16;;;;;;;5.43;4.80;;;-1.80;99.90;;;;;;485576;245;27487;-74
2021/03/20 05:05:17;;;;;;;6.12;5.45;;;-1.80;99.90;;;;;;485563;245;27399;-75
2021/03/20 05:07:19;;;;;;;7.53;5.32;;;-1.80;99.90;;;;;;485591;245;27926;-75
2021/03/20 05:09:20;;;;;;;8.65;5.57;;;-1.80;99.90;;;;;;485581;245;28947;-74
2021/03/20 05:11:21;;;;;;;9.68;5.65;;;-1.80;99.90;;;;;;485579;245;28964;-75
2021/03/20 05:13:22;;;;;;;6.22;4.85;;;-1.90;99.90;;;;;;485579;245;27390;-74
2021/03/20 05:15:24;;;;;;;9.10;5.35;;;-1.90;99.90;;;;;;485587;245;27476;-74
2021/03/20 05:17:25;;;;;;;10.48;6.15;;;-1.80;99.90;;;;;;485561;245;27398;-74
2021/03/20 05:19:26;;;;;;;9.55;5.78;;;-1.80;99.90;;;;;;485578;241;27527;-74
2021/03/20 05:21:27;;;;;;;7.53;6.35;;;-1.80;99.90;;;;;;485574;245;27382;-75
2021/03/20 05:23:29;;;;;;;9.30;6.68;;;-1.80;99.90;;;;;;485570;245;27408;-75
2021/03/20 05:25:30;;;;;;;9.65;7.25;;;-1.80;99.90;;;;;;485586;245;27478;-74
2021/03/20 05:27:31;;;;;;;10.38;6.53;;;-1.80;99.90;;;;;;485603;245;27960;-75
2021/03/20 05:29:32;;;;;;;9.00;7.07;;;-1.80;99.90;;;;;;485591;245;28937;-74
2021/03/20 05:31:34;;;;;;;7.35;5.50;;;-1.80;99.90;;;;;;485586;245;27398;-75
2021/03/20 05:33:35;;;;;;;9.02;6.60;;;-1.80;99.90;;;;;;485543;245;27394;-75
2021/03/20 05:35:36;;;;;;;11.23;7.07;;;-1.80;99.90;;;;;;485553;245;27391;-74
2021/03/20 05:37:37;;;;;;;9.52;6.70;;;-1.80;99.90;;;;;;485569;245;27390;-75
2021/03/20 05:39:39;;;;;;;9.23;7.25;;;-1.70;99.90;;;;;;485579;245;27486;-74
2021/03/20 05:41:40;;;;;;;9.05;7.05;;;-1.80;99.90;;;;;;485571;243;27387;-75
2021/03/20 05:43:41;;;;;;;11.75;7.32;;;-1.80;99.90;;;;;;485562;245;27489;-75
2021/03/20 05:45:42;;;;;;;12.73;7.57;;;-1.70;99.90;;;;;;485570;245;27862;-74
2021/03/20 05:47:44;;;;;;;8.07;6.28;;;-1.70;99.90;;;;;;485565;245;28240;-75
2021/03/20 05:49:45;;;;;;;11.23;6.78;;;-1.70;99.90;;;;;;485575;245;27371;-75
2021/03/20 05:51:46;;;;;;;10.52;6.40;;;-1.80;99.90;;;;;;485567;245;27486;-75
2021/03/20 05:53:47;;;;;;;8.52;7.07;;;-1.80;99.90;;;;;;485548;245;27488;-75
2021/03/20 05:55:49;;;;;;;11.23;6.82;;;-1.90;99.90;;;;;;485563;245;27411;-74
2021/03/20 05:57:50;;;;;;;11.63;7.10;;;-1.80;99.90;;;;;;485550;245;27489;-75
2021/03/20 05:59:51;;;;;;;8.07;6.65;;;-1.80;99.90;;;;;;485565;245;27410;-76
2021/03/20 06:01:52;;;;;;;8.02;6.55;;;-1.80;99.90;;;;;;485573;245;28007;-75
2021/03/20 06:03:54;;;;;;;7.47;6.68;;;-1.80;99.90;;;;;;485572;245;27882;-75
2021/03/20 06:05:55;;;;;;;7.82;6.78;;;-1.70;99.90;;;;;;485554;245;27952;-74
2021/03/20 06:07:56;;;;;;;9.02;7.62;;;-1.70;99.90;;;;;;485549;245;27387;-74
2021/03/20 06:09:57;;;;;;;11.15;7.50;;;-1.60;99.90;;;;;;485613;245;27418;-75
2021/03/20 06:11:59;;;;;;;13.35;6.80;;;-1.60;99.90;;;;;;485572;245;27496;-76
2021/03/20 06:14:00;;;;;;;8.27;6.90;;;-1.70;99.90;;;;;;485750;245;27387;-75
2021/03/20 06:16:01;;;;;;;11.82;7.30;;;-1.60;99.90;;;;;;485671;245;27398;-75
2021/03/20 06:18:03;;;;;;;7.47;6.50;;;-1.60;99.90;;;;;;485583;245;27470;-75
2021/03/20 06:20:04;;;;;;;7.40;6.35;;;-1.50;99.90;;;;;;485599;245;27890;-74
2021/03/20 06:22:05;;;;;;;9.55;6.60;;;-1.50;99.90;;;;;;485594;245;27846;-75
2021/03/20 06:24:06;;;;;;;8.63;6.70;;;-1.40;99.90;;;;;;485586;245;29106;-75
2021/03/20 06:26:08;;;;;;;11.68;6.90;;;-1.30;99.90;;;;;;483103;241;27459;-75
2021/03/20 06:28:09;;;;;;;10.48;7.57;;;-1.10;99.90;;;;;;476650;249;27529;-77
2021/03/20 06:30:10;;;;;;;8.52;7.57;;;-1.10;99.90;;;;;;476616;249;27387;-77
2021/03/20 06:32:11;;;;;;;8.90;6.93;;;-1.00;99.90;;;;;;476634;249;27398;-76
2021/03/20 06:34:13;;;;;;;9.48;6.55;;;-1.00;99.90;;;;;;476622;249;27416;-75
2021/03/20 06:36:14;;;;;;;9.00;7.35;;;-0.90;99.90;;;;;;476603;246;27505;-76
2021/03/20 06:38:15;;;;;;;6.00;4.90;;;-0.80;99.90;;;;;;476599;249;27450;-76
2021/03/20 06:40:16;;;;;;;6.93;5.40;;;-0.80;99.90;;;;;;476586;249;28951;-76
2021/03/20 06:42:18;;;;;;;9.48;6.43;;;-0.80;99.90;;;;;;476613;249;29263;-75
2021/03/20 06:44:19;;;;;;;9.18;6.30;;;-0.80;99.90;;;;;;476900;249;27384;-75
2021/03/20 06:46:20;;;;;;;7.75;6.55;;;-0.70;99.90;;;;;;477474;249;27562;-75
2021/03/20 06:48:21;;;;;;;7.97;6.10;;;-0.70;99.90;;;;;;477062;249;27394;-76
2021/03/20 06:50:23;;;;;;;10.60;7.25;;;-0.70;99.90;;;;;;476714;249;27412;-76
2021/03/20 06:52:24;;;;;;;9.77;7.43;;;-0.80;99.90;;;;;;476603;249;27495;-75
2021/03/20 06:54:25;;;;;;;9.13;7.12;;;-0.60;99.90;;;;;;476634;249;27390;-75
2021/03/20 06:56:27;;;;;;;8.55;6.37;;;-0.60;99.90;;;;;;476638;249;27396;-76
2021/03/20 06:58:28;;;;;;;9.95;6.87;;;-0.40;99.90;;;;;;476650;249;27835;-76
2021/03/20 07:00:29;;;;;;;8.32;6.90;;;-0.30;99.90;;;;;;476648;249;27870;-75
2021/03/20 07:02:30;;;;;;;11.63;7.10;;;-0.10;99.90;;;;;;476647;249;29013;-75
2021/03/20 07:04:31;;;;;;;8.55;7.50;;;-0.10;99.90;;;;;;476634;249;27386;-75
2021/03/20 07:06:33;;;;;;;10.10;6.97;;;0.00;99.90;;;;;;476651;249;27453;-75
2021/03/20 07:08:34;;;;;;;10.80;6.65;;;0.00;99.90;;;;;;476641;249;27411;-76
2021/03/20 07:10:35;;;;;;;7.95;6.80;;;0.00;99.90;;;;;;476646;249;27384;-75
2021/03/20 07:12:36;;;;;;;9.55;7.53;;;0.10;99.90;;;;;;476662;249;27478;-76
2021/03/20 07:14:38;;;;;;;13.27;7.68;;;0.20;99.90;;;;;;476634;249;27394;-78
2021/03/20 07:16:39;;;;;;;7.37;6.32;;;0.30;99.90;;;;;;476660;249;27398;-77
2021/03/20 07:18:40;;;;;;;9.07;7.32;;;0.30;99.90;;;;;;476666;249;27506;-77
2021/03/20 07:20:41;;;;;;;11.35;7.97;;;0.40;99.90;;;;;;483260;240;27854;-75
2021/03/20 07:22:43;;;;;;;11.43;7.47;;;0.40;99.90;;;;;;486800;244;27867;-75
2021/03/20 07:24:44;;;;;;;9.07;7.20;;;0.30;99.90;;;;;;486813;244;27897;-77
2021/03/20 07:26:45;;;;;;;9.00;7.57;;;0.40;99.90;;;;;;486809;244;27385;-75
2021/03/20 07:28:46;;;;;;;8.75;7.03;;;0.60;99.90;;;;;;486816;244;27326;-76
2021/03/20 07:30:48;;;;;;;9.57;7.20;;;0.50;99.90;;;;;;486830;244;27313;-75
2021/03/20 07:32:49;;;;;;;8.98;6.62;;;0.40;99.90;;;;;;486798;244;27398;-76
2021/03/20 07:34:50;;;;;;;10.13;7.50;;;0.40;99.90;;;;;;486815;244;27314;-75
2021/03/20 07:36:51;;;;;;;8.48;6.68;;;0.40;99.90;;;;;;486785;244;27323;-75
2021/03/20 07:38:53;;;;;;;7.43;6.25;;;0.40;99.90;;;;;;486835;244;27295;-75
2021/03/20 07:40:54;;;;;;;10.95;7.22;;;0.30;99.90;;;;;;486835;244;27322;-76
2021/03/20 07:42:55;;;;;;;8.25;6.45;;;0.30;99.90;;;;;;486838;244;27311;-75
2021/03/20 07:44:57;;;;;;;8.05;6.78;;;0.30;99.90;;;;;;486953;244;27324;-77
2021/03/20 07:46:58;;;;;;;8.63;6.55;;;0.30;99.90;;;;;;486842;244;27833;-75
2021/03/20 07:48:59;;;;;;;10.75;6.47;;;0.20;99.90;;;;;;486828;244;27754;-75
2021/03/20 07:51:00;;;;;;;10.82;7.00;;;0.20;99.90;;;;;;486824;244;27757;-75
2021/03/20 07:53:01;;;;;;;8.50;7.30;;;0.30;99.90;;;;;;486802;244;27321;-76
2021/03/20 07:55:03;;;;;;;10.38;6.85;;;0.30;99.90;;;;;;486805;244;27330;-75
2021/03/20 07:57:04;;;;;;;9.10;7.57;;;0.40;99.90;;;;;;486744;244;27396;-76
2021/03/20 07:59:05;;;;;;;11.15;6.90;;;0.30;99.90;;;;;;486678;244;27310;-76
2021/03/20 08:01:06;;;;;;;10.68;7.00;;;0.20;99.90;;;;;;486659;244;27396;-76
2021/03/20 08:03:08;;;;;;;8.75;7.07;;;0.20;99.90;;;;;;486759;244;27318;-76
2021/03/20 08:05:09;;;;;;;8.82;6.87;;;0.30;99.90;;;;;;486715;244;27322;-77
2021/03/20 08:07:10;;;;;;;10.10;7.10;;;0.30;99.90;;;;;;485454;240;27540;-75
2021/03/20 08:09:11;;;;;;;9.13;7.07;;;0.40;99.90;;;;;;501762;237;27833;-76
2021/03/20 08:11:13;;;;;;;9.48;7.32;;;0.50;99.90;;;;;;501767;237;27888;-76
2021/03/20 08:13:14;;;;;;;9.45;6.72;;;0.60;99.90;;;;;;501801;237;27946;-76
2021/03/20 08:15:15;;;;;;;8.85;6.70;;;0.70;99.90;;;;;;501787;237;27843;-77
2021/03/20 08:17:16;;;;;;;7.03;6.40;;;0.70;99.90;;;;;;501856;237;27372;-75
2021/03/20 08:19:18;;;;;;;10.52;7.70;;;0.70;99.90;;;;;;501760;237;27461;-74
2021/03/20 08:21:19;;;;;;;8.10;6.62;;;0.70;99.90;;;;;;502280;236;27369;-77
2021/03/20 08:23:20;;;;;;;7.78;5.85;;;0.80;99.90;;;;;;502178;237;27494;-77
2021/03/20 08:25:21;;;;;;;12.80;6.47;;;0.80;99.90;;;;;;502205;236;27378;-76
2021/03/20 08:27:23;;;;;;;7.70;6.05;;;0.90;99.90;;;;;;502167;236;27382;-75
2021/03/20 08:29:24;;;;;;;9.50;6.60;;;1.10;99.90;;;;;;502250;236;27391;-75
2021/03/20 08:31:25;;;;;;;11.45;6.47;;;1.10;99.90;;;;;;502210;236;27399;-77
2021/03/20 08:33:26;;;;;;;8.80;6.40;;;1.10;99.90;;;;;;502273;236;27481;-76
2021/03/20 08:35:28;;;;;;;11.20;6.97;;;1.00;99.90;;;;;;502265;236;27934;-78
2021/03/20 08:37:29;;;;;;;10.15;6.20;;;1.00;99.90;;;;;;502280;236;28224;-77
2021/03/20 08:39:30;;;;;;;7.50;5.97;;;0.90;99.90;;;;;;502267;237;27925;-75
2021/03/20 08:41:31;;;;;;;8.75;6.20;;;0.80;99.90;;;;;;502311;236;27374;-77
2021/03/20 08:43:33;;;;;;;6.43;5.43;;;0.90;99.90;;;;;;502277;236;27460;-76
2021/03/20 08:45:34;;;;;;;8.73;5.32;;;1.10;99.90;;;;;;502309;236;27387;-77
2021/03/20 08:47:35;;;;;;;6.28;5.10;;;1.20;99.90;;;;;;502281;236;27450;-77
2021/03/20 08:49:37;;;;;;;5.35;4.85;;;1.20;99.90;;;;;;502205;236;27546;-75
2021/03/20 08:51:38;;;;;;;6.60;5.10;;;1.20;99.90;;;;;;502224;236;27470;-77
2021/03/20 08:53:39;;;;;;;7.18;5.25;;;1.30;99.90;;;;;;502229;236;27370;-76
2021/03/20 08:55:40;;;;;;;6.95;5.43;;;1.40;99.90;;;;;;502227;236;27417;-75
2021/03/20 08:57:41;;;;;;;13.70;8.55;;;1.50;99.90;;;;;;502210;236;27436;-77
2021/03/20 08:59:43;;;;;;;7.55;5.68;;;1.60;99.90;;;;;;502173;236;27375;-75
2021/03/20 09:01:44;;;;;;;5.60;4.87;;;1.70;99.90;;;;;;502218;236;27972;-75
2021/03/20 09:03:45;;;;;;;6.85;4.50;;;1.70;99.90;;;;;;487018;236;28398;-75
2021/03/20 09:05:47;;;;;;;6.12;4.72;;;1.90;99.90;;;;;;482167;245;28078;-77
2021/03/20 09:07:48;;;;;;;6.03;4.65;;;2.10;99.90;;;;;;493650;237;27869;-76
2021/03/20 09:09:49;;;;;;;7.87;4.65;;;2.20;99.90;;;;;;492821;241;27489;-75
2021/03/20 09:11:50;;;;;;;7.22;4.00;;;2.20;99.90;;;;;;492805;241;27599;-77
2021/03/20 09:13:51;;;;;;;5.72;4.45;;;2.00;99.90;;;;;;492826;241;27494;-76
2021/03/20 09:15:53;;;;;;;4.75;4.10;;;1.90;99.90;;;;;;492794;241;27941;-77
2021/03/20 09:17:54;;;;;;;7.60;5.50;;;1.80;99.90;;;;;;492794;241;28082;-76
2021/03/20 09:19:55;;;;;;;3.90;3.53;;;2.00;99.90;;;;;;492817;241;28014;-76
2021/03/20 09:21:56;;;;;;;4.72;3.95;;;1.70;99.90;;;;;;492097;241;27940;-76
2021/03/20 09:23:58;;;;;;;5.60;4.53;;;1.90;99.90;;;;;;490824;242;27501;-78
2021/03/20 09:25:59;;;;;;;5.37;4.15;;;2.10;99.90;;;;;;490859;242;27394;-77
2021/03/20 09:28:00;;;;;;;5.20;3.95;;;1.80;99.90;;;;;;490845;242;27501;-76
2021/03/20 09:30:02;;;;;;;4.45;4.00;;;1.90;99.90;;;;;;490837;242;27970;-77
2021/03/20 09:32:03;;;;;;;3.80;3.50;;;1.90;99.90;;;;;;490849;242;27877;-76
2021/03/20 09:34:04;;;;;;;4.20;3.80;;;2.00;99.90;;;;;;490830;242;27988;-75
2021/03/20 09:36:05;;;;;;;4.28;3.72;;;1.90;99.90;;;;;;490859;242;27917;-77
2021/03/20 09:38:07;;;;;;;4.10;3.70;;;1.90;99.90;;;;;;490874;242;27397;-77
2021/03/20 09:40:08;;;;;;;4.03;3.62;;;1.90;99.90;;;;;;490834;242;27397;-75
2021/03/20 09:42:09;;;;;;;4.70;4.30;;;2.10;99.90;;;;;;490834;242;27406;-77
2021/03/20 09:44:10;;;;;;;4.05;3.65;;;2.00;99.90;;;;;;490863;242;27401;-77
2021/03/20 09:46:12;;;;;;;4.87;3.78;;;2.20;99.90;;;;;;490831;242;27497;-77
2021/03/20 09:48:13;;;;;;;4.65;4.00;;;2.30;99.90;;;;;;490849;242;27596;-77
2021/03/20 09:50:14;;;;;;;4.60;4.20;;;2.10;99.90;;;;;;490913;242;27481;-76
2021/03/20 09:52:15;;;;;;;4.32;3.92;;;2.00;99.90;;;;;;490828;242;27496;-77
2021/03/20 09:54:17;;;;;;;4.20;3.80;;;2.10;99.90;;;;;;490835;242;27394;-77
2021/03/20 09:56:18;;;;;;;4.93;4.00;;;2.30;99.90;;;;;;490823;242;27390;-78
2021/03/20 09:58:19;;;;;;;5.35;3.80;;;2.20;99.90;;;;;;490824;242;27854;-76
2021/03/20 10:00:20;;;;;;;6.65;3.85;;;2.30;99.90;;;;;;490871;242;27913;-76
2021/03/20 10:02:22;;;;;;;4.50;4.00;;;2.20;99.90;;;;;;490872;242;28240;-76
2021/03/20 10:04:23;;;;;;;5.32;4.80;;;2.20;99.90;;;;;;490834;242;27963;-77
2021/03/20 10:06:25;;;;;;;3.92;3.62;;;2.40;99.90;;;;;;490850;242;27505;-77
2021/03/20 10:08:25;;;;;;;4.30;3.90;;;2.30;99.90;;;;;;490843;242;27401;-76
2021/03/20 10:10:27;;;;;;;4.75;4.32;;;2.30;99.90;;;;;;490808;242;27396;-78
2021/03/20 10:12:28;;;;;;;4.10;3.70;;;2.30;99.90;;;;;;490879;242;27378;-76
2021/03/20 10:14:29;;;;;;;4.25;3.85;;;2.40;99.90;;;;;;490849;242;27465;-76
2021/03/20 10:16:30;;;;;;;4.15;3.75;;;2.30;99.90;;;;;;490818;242;27482;-78
2021/03/20 10:18:32;;;;;;;5.30;3.80;;;2.10;99.90;;;;;;490888;242;27386;-76
2021/03/20 10:20:33;;;;;;;4.25;3.65;;;2.00;99.90;;;;;;490875;242;27378;-78
2021/03/20 10:22:34;;;;;;;4.93;3.58;;;2.30;99.90;;;;;;490830;242;27423;-76
2021/03/20 10:24:35;;;;;;;4.28;3.30;;;2.20;99.90;;;;;;490884;242;27406;-76
2021/03/20 10:26:37;;;;;;;4.68;3.67;;;2.20;99.90;;;;;;490857;242;28007;-76
2021/03/20 10:28:38;;;;;;;3.60;3.30;;;2.20;99.90;;;;;;490849;242;27963;-77
2021/03/20 10:30:39;;;;;;;5.57;3.55;;;2.20;99.90;;;;;;490882;242;27858;-77